Port Columbus International Airport
KCMH : rendu visible

Aérodrome :











RETROUVEZ-NOUS SUR...

 
LOGIN :

S'inscrire | Disclaimer

   EN    FR    IT 

 









Légende :    VFR   VFR Marginal   IFR   IFR Intensif   IFR Très Intensif
Visi : 
Plafond : 
>= 8 km
>= 3000ft
5 à 8 km
1000 à 3000 ft
1500m à 5 km
500 à 1000 ft
800 à 1500m
200 à 500 ft
< 800m
< 200 ft
Symboles :   Orages  Brouillard  Fortes neiges  Fortes précipitations  Vent > 20 kt







- Altitude de l'aérodrome : 815 ft
- Code IATA : CMH


KCMH - Port Columbus International

DERNIER METAR :
  • 192351Z 20008KT 10SM -RA BKN055 OVC075 21/17 A2983 RMK AO2 SLP095 P0001 60003 T02060167 10278 20194 50005 $

METARs EXPIRÉS :
  • 192251Z 26009KT 9SM -RA SCT050 OVC075 20/17 A2983 RMK AO2 PK WND 22026/2152 SLP098 P0002 T02000172 $
  • 192151Z 23023G30KT 6SM -RA BR BKN060 BKN080 OVC100 24/16 A2983 RMK AO2 PK WND 22030/2151 PRESRR SLP095 P0000 T02390156 $

TAF KCMH
Valide du 20 à 00h jusqu'au 21 à 00h UTC


192330Z 2000/2024 24010KT P6SM -SHRA OVC050
FM200200 22010KT P6SM BKN040
FM200300 25010KT P6SM SCT040 BKN080
FM201000 25009KT P6SM SCT020
FM201600 27012G22KT P6SM BKN035
FIR KZID / Amérique du Nord



MET'MAP, la Météo Aéronautique d'un coup d'oeil ! - Copyright ORBIFLY Décembre 2007 - Disclaimer

ORBIFLY MET'MAP TEAM :

Programmation & Développement : Alexandra Zaïnal
Conception & Développement : Baudouin d'Aumeries
Co-Programmation & Développement : Marc-Olivier Méhu
Soutien technique & logistique : Manuel Goepfert

Contact : metmap@orbifly.com




SOURCES & CREDITS :

   NOAA       Earth
Advisory